Rachel — D5CG4 — position and weather

sailwx.info

Track history (hours):
 
Tides and Currents Weather Stations Pressure Air Temp Water Temp Dewpoint Dewpoint Depression Visibility Wind Speed Wind Dir Waves Ship Positions

Rachel

Last reported at 2014-Oct-04 08:15 UTC. Time now 2014-Oct-24 21:23 UTC.
Position N 22°10' E 114°08'.
Warning: this ship's position is 20 days out of date.

Length 189 m; draft 6.6 m.

Type: Cargo ship. MMSI: 636015692.

Date/timePositionNaut miles runAvg speedWind from/ knotsBaromVisibWave heightAir tempDewpointWater temp
2014-Oct-04 08:15N 22°10' E 114°08'11 1.1
2014-Oct-03 22:24N 22°06' E 113°57'6 7.2
2014-Oct-03 21:32N 22°04' E 113°50'9 8.8
2014-Oct-03 20:33N 22°12' E 113°47'1110.6
2014-Oct-03 19:33N 22°23' E 113°46'1110.9
2014-Oct-03 18:33N 22°34' E 113°43'1211.7
2014-Oct-03 17:33N 22°45' E 113°39'1010.6
2014-Oct-03 16:33N 22°54' E 113°34'8 7.9
2014-Oct-03 15:33N 23°01' E 113°31'1 0.5
2014-Oct-03 14:28N 23°01' E 113°32'0 0.0
2014-Oct-03 13:28N 23°01' E 113°32'0 0.0
2014-Oct-03 12:22N 23°01' E 113°32'0 0.0
2014-Oct-03 11:28N 23°01' E 113°32'0 0.0
2014-Oct-03 10:28N 23°01' E 113°32'0 0.0
2014-Oct-03 09:28N 23°01' E 113°32'0 0.0
2014-Oct-03 08:22N 23°01' E 113°32'0 0.0
2014-Oct-03 07:28N 23°01' E 113°32'0 0.0
2014-Oct-03 06:28N 23°01' E 113°32'0 0.0
2014-Oct-03 05:16N 23°01' E 113°32'0 0.0
2014-Oct-03 04:28N 23°01' E 113°32'0 0.0
2014-Oct-03 03:16N 23°01' E 113°32'0 0.0
2014-Oct-03 02:28N 23°01' E 113°32'0 0.0
2014-Oct-03 01:16N 23°01' E 113°32'0 0.0
2014-Oct-03 00:22N 23°01' E 113°32'0 0.0
2014-Oct-02 23:22N 23°01' E 113°32'0 0.0
2014-Oct-02 22:16N 23°01' E 113°32'0 0.0
2014-Oct-02 21:04N 23°01' E 113°32'0 0.0
2014-Oct-02 20:28N 23°01' E 113°32'0 0.0
2014-Oct-02 19:34N 23°01' E 113°32'0 0.0
2014-Oct-02 18:28N 23°01' E 113°32'0 0.0
2014-Oct-02 17:34N 23°01' E 113°32'0 0.0
2014-Oct-02 16:34N 23°01' E 113°32'0 0.0
2014-Oct-02 15:28N 23°01' E 113°32'0 0.0
2014-Oct-02 14:28N 23°01' E 113°32'0 0.0
2014-Oct-02 13:28N 23°01' E 113°32'0 0.0
2014-Oct-02 12:28N 23°01' E 113°32'0 0.0
2014-Oct-02 11:34N 23°01' E 113°32'0 0.0
2014-Oct-02 10:28N 23°01' E 113°32'0 0.0
2014-Oct-02 09:28N 23°01' E 113°32'0 0.0
2014-Oct-02 08:34N 23°01' E 113°32'0 0.0
2014-Oct-02 07:34N 23°01' E 113°32'0 0.0
2014-Oct-02 06:28N 23°01' E 113°32'0 0.0
2014-Oct-02 05:33N 23°01' E 113°32'0 0.0
2014-Oct-02 04:27N 23°01' E 113°32'0 0.0
2014-Oct-02 03:09N 23°01' E 113°32'0 0.0
2014-Oct-02 02:33N 23°01' E 113°32'0 0.0
2014-Oct-02 01:27N 23°01' E 113°32'0 0.0
2014-Oct-02 00:33N 23°01' E 113°32'0 0.0
2014-Oct-01 23:33N 23°01' E 113°32'3 3.2
2014-Oct-01 22:33N 22°58' E 113°33'7 7.3
2014-Oct-01 21:32N 22°51' E 113°34'10 9.7
2014-Oct-01 20:30N 22°43' E 113°41'1410.1
2014-Oct-01 19:09N 22°30' E 113°45'610.2
2014-Oct-01 18:33N 22°24' E 113°46'10 9.5
2014-Oct-01 17:33N 22°15' E 113°49'9 9.3
2014-Oct-01 16:33N 22°05' E 113°51'7 6.9
2014-Oct-01 15:33N 21°59' E 113°52'3 2.9
2014-Oct-01 14:20N 21°55' E 113°53'  
Track history (hours):
 
Tides and Currents Weather Stations Pressure Air Temp Water Temp Dewpoint Dewpoint Depression Visibility Wind Speed Wind Dir Waves Ship Positions

Rachel

Last reported at 2014-Oct-04 08:15 UTC. Time now 2014-Oct-24 21:23 UTC.
Position N 22°10' E 114°08'.
Warning: this ship's position is 20 days out of date.

Length 189 m; draft 6.6 m.

Type: Cargo ship. MMSI: 636015692.

Date/timePositionNaut miles runAvg speedWind from/ knotsBaromVisibWave heightAir tempDewpointWater temp
2014-Oct-04 08:15N 22°10' E 114°08'11 1.1
2014-Oct-03 22:24N 22°06' E 113°57'6 7.2
2014-Oct-03 21:32N 22°04' E 113°50'9 8.8
2014-Oct-03 20:33N 22°12' E 113°47'1110.6
2014-Oct-03 19:33N 22°23' E 113°46'1110.9
2014-Oct-03 18:33N 22°34' E 113°43'1211.7
2014-Oct-03 17:33N 22°45' E 113°39'1010.6
2014-Oct-03 16:33N 22°54' E 113°34'8 7.9
2014-Oct-03 15:33N 23°01' E 113°31'1 0.5
2014-Oct-03 14:28N 23°01' E 113°32'0 0.0
2014-Oct-03 13:28N 23°01' E 113°32'0 0.0
2014-Oct-03 12:22N 23°01' E 113°32'0 0.0
2014-Oct-03 11:28N 23°01' E 113°32'0 0.0
2014-Oct-03 10:28N 23°01' E 113°32'0 0.0
2014-Oct-03 09:28N 23°01' E 113°32'0 0.0
2014-Oct-03 08:22N 23°01' E 113°32'0 0.0
2014-Oct-03 07:28N 23°01' E 113°32'0 0.0
2014-Oct-03 06:28N 23°01' E 113°32'0 0.0
2014-Oct-03 05:16N 23°01' E 113°32'0 0.0
2014-Oct-03 04:28N 23°01' E 113°32'0 0.0
2014-Oct-03 03:16N 23°01' E 113°32'0 0.0
2014-Oct-03 02:28N 23°01' E 113°32'0 0.0
2014-Oct-03 01:16N 23°01' E 113°32'0 0.0
2014-Oct-03 00:22N 23°01' E 113°32'0 0.0
2014-Oct-02 23:22N 23°01' E 113°32'0 0.0
2014-Oct-02 22:16N 23°01' E 113°32'0 0.0
2014-Oct-02 21:04N 23°01' E 113°32'0 0.0
2014-Oct-02 20:28N 23°01' E 113°32'0 0.0
2014-Oct-02 19:34N 23°01' E 113°32'0 0.0
2014-Oct-02 18:28N 23°01' E 113°32'0 0.0
2014-Oct-02 17:34N 23°01' E 113°32'0 0.0
2014-Oct-02 16:34N 23°01' E 113°32'0 0.0
2014-Oct-02 15:28N 23°01' E 113°32'0 0.0
2014-Oct-02 14:28N 23°01' E 113°32'0 0.0
2014-Oct-02 13:28N 23°01' E 113°32'0 0.0
2014-Oct-02 12:28N 23°01' E 113°32'0 0.0
2014-Oct-02 11:34N 23°01' E 113°32'0 0.0
2014-Oct-02 10:28N 23°01' E 113°32'0 0.0
2014-Oct-02 09:28N 23°01' E 113°32'0 0.0
2014-Oct-02 08:34N 23°01' E 113°32'0 0.0
2014-Oct-02 07:34N 23°01' E 113°32'0 0.0
2014-Oct-02 06:28N 23°01' E 113°32'0 0.0
2014-Oct-02 05:33N 23°01' E 113°32'0 0.0
2014-Oct-02 04:27N 23°01' E 113°32'0 0.0
2014-Oct-02 03:09N 23°01' E 113°32'0 0.0
2014-Oct-02 02:33N 23°01' E 113°32'0 0.0
2014-Oct-02 01:27N 23°01' E 113°32'0 0.0
2014-Oct-02 00:33N 23°01' E 113°32'0 0.0
2014-Oct-01 23:33N 23°01' E 113°32'3 3.2
2014-Oct-01 22:33N 22°58' E 113°33'7 7.3
2014-Oct-01 21:32N 22°51' E 113°34'10 9.7
2014-Oct-01 20:30N 22°43' E 113°41'1410.1
2014-Oct-01 19:09N 22°30' E 113°45'610.2
2014-Oct-01 18:33N 22°24' E 113°46'10 9.5
2014-Oct-01 17:33N 22°15' E 113°49'9 9.3
2014-Oct-01 16:33N 22°05' E 113°51'7 6.9
2014-Oct-01 15:33N 21°59' E 113°52'3 2.9
2014-Oct-01 14:20N 21°55' E 113°53'  

Dump ship's entire track history